createdAt,value
2018-06-19T02:26:25.835Z,26.23
2018-06-19T02:28:55.477Z,24.57
2018-06-19T02:31:24.532Z,25.23
2018-06-19T02:33:53.509Z,21.70
2018-06-19T02:36:23.114Z,20.30
2018-06-19T02:38:52.982Z,25.57
2018-06-19T02:41:21.922Z,25.17
2018-06-19T02:43:50.889Z,21.40
2018-06-19T02:46:19.832Z,19.70
2018-06-19T02:48:48.725Z,32.60
2018-06-19T02:51:18.544Z,24.20
2018-06-19T02:53:47.540Z,21.70
2018-06-19T02:56:16.409Z,22.20
2018-06-19T02:58:45.852Z,24.50
2018-06-19T03:01:14.737Z,27.47
2018-06-19T03:03:43.682Z,31.53
2018-06-19T03:06:12.580Z,21.77
2018-06-19T03:08:41.492Z,22.60
2018-06-19T03:11:10.541Z,23.03
2018-06-19T03:13:39.845Z,24.40
2018-06-19T03:16:08.917Z,21.27
2018-06-19T03:18:37.847Z,18.70
2018-06-19T03:21:06.792Z,23.27
2018-06-19T03:23:35.748Z,25.70
2018-06-19T03:26:04.675Z,26.80
2018-06-19T03:28:33.959Z,29.20
2018-06-19T03:31:02.983Z,24.70
2018-06-19T03:33:32.479Z,28.53
2018-06-19T03:36:01.421Z,20.33
2018-06-19T03:38:30.345Z,22.60
2018-06-19T03:40:59.272Z,17.03
2018-06-19T03:43:28.492Z,22.37
2018-06-19T03:45:58.120Z,20.37
2018-06-19T03:48:28.476Z,18.97
2018-06-19T03:50:57.836Z,16.77
2018-06-19T03:53:26.873Z,20.47
2018-06-19T03:55:55.896Z,17.13
2018-06-19T03:58:24.794Z,16.73
2018-06-19T04:00:53.760Z,22.27
2018-06-19T04:03:22.684Z,17.97
2018-06-19T04:05:51.621Z,19.53
2018-06-19T04:08:21.126Z,14.90
2018-06-19T04:10:50.105Z,18.90
2018-06-19T04:13:19.028Z,15.83
2018-06-19T04:15:53.737Z,14.33
2018-06-19T04:18:22.665Z,21.03
2018-06-19T04:20:51.572Z,21.87
2018-06-19T04:36:21.151Z,17.00
2018-06-19T04:38:50.635Z,13.90
2018-06-19T04:41:19.566Z,15.97
2018-06-19T04:43:48.486Z,17.00
2018-06-19T04:46:17.376Z,19.70
2018-06-19T04:48:46.742Z,17.00
2018-06-19T04:51:15.991Z,15.20
2018-06-19T04:53:44.928Z,20.17
2018-06-19T04:56:13.862Z,18.63
2018-06-19T04:58:42.953Z,15.07
2018-06-19T05:01:12.095Z,15.67
2018-06-19T05:03:42.509Z,17.73
2018-06-19T05:06:11.496Z,19.43
2018-06-19T05:08:41.016Z,17.17
2018-06-19T05:11:10.579Z,16.23
2018-06-19T05:13:39.500Z,21.27
2018-06-19T05:16:08.485Z,15.67
2018-06-19T05:18:37.525Z,18.50
2018-06-19T05:21:06.539Z,18.00
2018-06-19T05:23:35.461Z,16.33
2018-06-19T05:26:04.423Z,21.20
2018-06-19T05:38:19.111Z,19.83
2018-06-19T05:40:48.837Z,16.33
2018-06-19T05:43:17.990Z,21.23
2018-06-19T05:45:47.627Z,22.10
2018-06-19T05:48:16.666Z,19.17
2018-06-19T05:50:45.815Z,16.13
2018-06-19T05:53:14.759Z,21.63
2018-06-19T05:55:43.776Z,21.97
2018-06-19T05:58:12.743Z,14.60
2018-06-19T06:13:41.739Z,22.67
2018-06-19T06:16:11.577Z,17.70
2018-06-19T06:18:41.237Z,19.90
2018-06-19T06:21:11.027Z,18.90
2018-06-19T06:23:39.983Z,20.33
2018-06-19T06:26:08.953Z,15.30
2018-06-19T06:28:37.965Z,15.20
2018-06-19T06:31:07.769Z,14.97
2018-06-19T06:33:37.245Z,20.20
2018-06-19T06:36:07.423Z,15.07
2018-06-19T06:38:36.423Z,18.63
2018-06-19T06:41:05.437Z,15.30
2018-06-19T06:43:34.656Z,14.97
2018-06-19T06:46:03.815Z,15.43
2018-06-19T06:48:32.961Z,16.73
2018-06-19T06:51:01.913Z,13.67
2018-06-19T06:53:30.917Z,14.97
2018-06-19T06:55:59.833Z,14.93
2018-06-19T06:58:29.475Z,19.43
2018-06-19T07:00:58.431Z,17.30
2018-06-19T07:03:27.957Z,16.77
2018-06-19T07:05:56.996Z,16.83
2018-06-19T07:08:26.437Z,14.80
2018-06-19T07:10:55.469Z,16.10
2018-06-19T07:13:24.436Z,15.07
2018-06-19T07:15:53.442Z,13.73
2018-06-19T07:18:22.335Z,18.73
2018-06-19T07:23:37.523Z,16.93
2018-06-19T07:26:06.469Z,17.33
2018-06-19T07:28:35.384Z,13.20
2018-06-19T07:31:04.382Z,12.50
2018-06-19T07:33:33.383Z,19.27
2018-06-19T07:36:02.459Z,12.37
2018-06-19T07:38:31.518Z,13.53
2018-06-19T07:41:05.393Z,14.20
2018-06-19T07:43:35.350Z,16.47
2018-06-19T07:46:04.893Z,10.90
2018-06-19T07:48:33.996Z,12.57
2018-06-19T07:51:02.973Z,10.23
2018-06-19T07:53:31.935Z,9.23
2018-06-19T07:56:00.884Z,10.73
2018-06-19T07:58:29.761Z,7.90
2018-06-19T08:00:58.886Z,8.97
2018-06-19T08:03:28.285Z,12.40
2018-06-19T08:05:57.245Z,12.27
2018-06-19T08:08:26.189Z,11.47
2018-06-19T08:10:55.184Z,11.33
2018-06-19T08:13:24.118Z,12.33
2018-06-19T08:15:53.109Z,10.93
2018-06-19T08:18:22.020Z,8.67
2018-06-19T08:20:50.991Z,7.20
2018-06-19T08:23:19.933Z,9.63
2018-06-19T08:25:48.848Z,7.90
2018-06-19T08:28:18.792Z,8.10
2018-06-19T08:30:47.729Z,8.37
2018-06-19T08:33:22.254Z,9.23
2018-06-19T08:35:51.220Z,8.60
2018-06-19T08:38:20.196Z,5.70
2018-06-19T08:40:50.028Z,9.23
2018-06-19T08:43:19.433Z,5.27
2018-06-19T08:45:48.348Z,7.30
2018-06-19T08:48:17.356Z,6.43
2018-06-19T08:50:47.096Z,6.53
2018-06-19T08:53:16.004Z,8.03
2018-06-19T08:55:44.931Z,10.03
2018-06-19T08:58:13.858Z,4.87
2018-06-19T09:00:43.617Z,7.00
2018-06-19T09:03:18.878Z,5.37
2018-06-19T09:05:48.919Z,6.70
2018-06-19T09:08:17.843Z,5.33
2018-06-19T09:10:46.866Z,7.37
2018-06-19T09:13:16.367Z,6.50
2018-06-19T09:15:45.389Z,6.23
2018-06-19T09:18:14.293Z,7.40
2018-06-19T09:20:43.245Z,5.13
2018-06-19T09:23:13.126Z,6.03
2018-06-19T09:25:42.241Z,4.83
2018-06-19T09:28:11.141Z,5.83
2018-06-19T09:30:40.295Z,6.43
2018-06-19T09:33:09.224Z,3.10
2018-06-19T09:35:39.279Z,4.87
2018-06-19T09:38:08.210Z,3.70
2018-06-19T09:40:37.149Z,3.77
2018-06-19T09:43:11.691Z,4.20
2018-06-19T09:45:41.127Z,6.03
2018-06-19T09:48:10.054Z,7.10
2018-06-19T09:50:39.615Z,3.93
2018-06-19T09:53:08.651Z,3.50
2018-06-19T09:55:37.899Z,5.17
2018-06-19T09:58:06.887Z,5.93
2018-06-19T10:00:36.955Z,3.50
2018-06-19T10:03:11.753Z,4.33
2018-06-19T10:05:46.120Z,3.57
2018-06-19T10:08:15.235Z,2.80
2018-06-19T10:10:44.519Z,5.37
2018-06-19T10:13:13.543Z,2.80
2018-06-19T10:15:42.501Z,2.70
2018-06-19T10:18:11.418Z,5.20
2018-06-19T10:20:40.365Z,4.80
2018-06-19T10:23:09.395Z,6.80
2018-06-19T10:25:38.932Z,5.60
2018-06-19T10:28:07.906Z,7.00
2018-06-19T10:30:36.868Z,5.90
2018-06-19T10:33:06.377Z,5.10
2018-06-19T10:35:35.545Z,4.73
2018-06-19T10:38:04.555Z,4.80
2018-06-19T10:40:33.457Z,3.23
2018-06-19T10:43:02.378Z,5.83
2018-06-19T10:45:31.328Z,3.27
2018-06-19T10:48:00.935Z,4.27
2018-06-19T10:50:29.816Z,6.97
2018-06-19T10:52:58.736Z,6.00
2018-06-19T10:55:27.949Z,2.97
2018-06-19T10:57:57.506Z,5.67
2018-06-19T11:00:26.392Z,3.07
2018-06-19T11:02:55.319Z,3.00
2018-06-19T11:05:24.226Z,4.07
2018-06-19T11:07:53.264Z,4.57
2018-06-19T11:10:22.278Z,5.67
2018-06-19T11:12:51.253Z,3.10
2018-06-19T11:15:21.278Z,4.30
2018-06-19T11:17:52.560Z,4.20
2018-06-19T11:20:22.192Z,3.40
2018-06-19T11:22:51.963Z,3.37
2018-06-19T11:25:20.924Z,3.27
2018-06-19T11:27:49.924Z,4.83
2018-06-19T11:30:18.878Z,2.77
2018-06-19T11:32:47.796Z,3.87
2018-06-19T11:35:17.010Z,4.40
2018-06-19T11:37:45.952Z,5.60
2018-06-19T11:40:14.986Z,4.77
2018-06-19T11:55:43.959Z,4.30
2018-06-19T11:58:14.595Z,5.17
2018-06-19T12:00:43.553Z,3.73
2018-06-19T12:03:12.502Z,4.23
2018-06-19T12:05:41.742Z,6.10
2018-06-19T12:08:10.766Z,4.10
2018-06-19T12:10:39.739Z,2.83
2018-06-19T12:13:09.004Z,7.93
2018-06-19T12:15:37.865Z,3.03
2018-06-19T12:18:06.770Z,4.27
2018-06-19T12:20:36.320Z,4.40
2018-06-19T12:23:05.221Z,5.07
2018-06-19T12:25:34.176Z,2.87
2018-06-19T12:28:03.193Z,5.47
2018-06-19T12:30:32.929Z,3.30
2018-06-19T12:33:01.864Z,4.37
2018-06-19T12:35:30.736Z,3.50
2018-06-19T12:38:00.255Z,3.23
2018-06-19T12:40:29.147Z,2.80
2018-06-19T12:42:58.043Z,4.30
2018-06-19T12:45:27.171Z,3.90
2018-06-19T12:47:56.167Z,4.13
2018-06-19T12:50:39.747Z,3.43
2018-06-19T12:53:20.523Z,3.67
2018-06-19T12:56:01.411Z,4.13
2018-06-19T12:58:30.846Z,3.50
2018-06-19T13:00:59.747Z,4.13
2018-06-19T13:03:40.600Z,4.00
2018-06-19T13:06:20.796Z,3.63
2018-06-19T13:08:49.834Z,3.23
2018-06-19T13:11:20.065Z,3.23
2018-06-19T13:14:00.161Z,2.83
2018-06-19T13:16:40.417Z,5.43
2018-06-19T13:32:09.505Z,3.60
2018-06-19T13:34:38.700Z,3.60
2018-06-19T13:37:07.879Z,6.13
2018-06-19T13:39:37.916Z,6.47
2018-06-19T13:42:20.289Z,4.17
2018-06-19T13:45:01.783Z,5.30
2018-06-19T13:47:31.487Z,5.73
2018-06-19T13:50:00.664Z,5.53
2018-06-19T13:52:29.603Z,3.90
2018-06-19T13:55:09.943Z,4.30
2018-06-19T13:57:50.341Z,6.20
2018-06-19T14:00:22.328Z,3.50
2018-06-19T14:02:51.314Z,4.13
2018-06-19T14:05:20.899Z,5.07
2018-06-19T14:08:02.639Z,4.33
2018-06-19T14:10:45.456Z,4.73
2018-06-19T14:13:15.446Z,3.47
2018-06-19T14:15:50.616Z,4.80
2018-06-19T14:18:21.521Z,3.93
2018-06-19T14:20:50.495Z,3.20
2018-06-19T14:23:19.365Z,4.13
2018-06-19T14:25:48.268Z,3.33
2018-06-19T14:28:18.229Z,3.47
2018-06-19T14:30:47.129Z,3.27
2018-06-19T14:33:16.026Z,6.03
2018-06-19T14:35:44.976Z,3.70
2018-06-19T14:38:14.501Z,3.43
2018-06-19T14:40:43.791Z,3.63
2018-06-19T14:43:12.737Z,3.77
2018-06-19T14:45:41.618Z,3.70
2018-06-19T14:48:10.542Z,5.10
2018-06-19T14:50:39.463Z,3.73
2018-06-19T14:53:08.380Z,3.90
2018-06-19T14:55:37.270Z,3.33
2018-06-19T14:58:06.190Z,4.77
2018-06-19T15:00:35.082Z,3.60
2018-06-19T15:03:04.124Z,3.87
2018-06-19T15:05:33.077Z,3.27
2018-06-19T15:08:02.020Z,3.73
2018-06-19T15:10:30.960Z,3.87
2018-06-19T15:12:59.848Z,4.93
2018-06-19T15:15:29.084Z,5.07
2018-06-19T15:17:58.004Z,5.20
2018-06-19T15:20:27.792Z,8.23
2018-06-19T15:22:56.988Z,3.43
2018-06-19T15:25:26.584Z,4.20
2018-06-19T15:27:56.483Z,4.83
2018-06-19T15:30:25.460Z,7.13
2018-06-19T15:32:59.952Z,3.63
2018-06-19T15:35:34.484Z,4.03
2018-06-19T15:38:03.700Z,4.10
2018-06-19T15:40:32.634Z,5.37
2018-06-19T15:43:01.527Z,4.20
2018-06-19T15:45:30.500Z,4.37
2018-06-19T15:47:59.473Z,4.67
2018-06-19T15:50:28.661Z,4.50
2018-06-19T15:52:57.661Z,4.93
2018-06-19T15:55:27.260Z,4.43
2018-06-19T15:57:56.483Z,4.13
2018-06-19T16:00:25.760Z,4.63
2018-06-19T16:02:54.629Z,4.80
2018-06-19T16:05:23.736Z,3.80
2018-06-19T16:07:58.299Z,5.23
2018-06-19T16:10:27.373Z,4.10
2018-06-19T16:12:56.323Z,4.17
2018-06-19T16:15:26.263Z,3.80
2018-06-19T16:17:55.257Z,5.17
2018-06-19T16:20:30.709Z,3.40
2018-06-19T16:22:59.638Z,3.83
2018-06-19T16:25:28.756Z,4.97
2018-06-19T16:27:57.626Z,5.03
2018-06-19T16:30:26.961Z,4.37
2018-06-19T16:32:55.869Z,7.57
2018-06-19T16:35:24.751Z,4.83
2018-06-19T16:37:53.834Z,4.50
2018-06-19T16:40:22.841Z,8.50
2018-06-19T16:42:52.043Z,9.17
2018-06-19T16:45:21.099Z,4.80
2018-06-19T16:47:50.338Z,4.20
2018-06-19T16:50:19.259Z,4.87
2018-06-19T16:52:48.173Z,5.23
2018-06-19T16:55:17.359Z,4.73
2018-06-19T16:57:46.331Z,7.37
2018-06-19T17:00:15.245Z,9.20
2018-06-19T17:02:44.574Z,4.70
2018-06-19T17:05:13.566Z,6.37
2018-06-19T17:07:43.242Z,5.57
2018-06-19T17:10:13.348Z,6.67
2018-06-19T17:12:42.755Z,8.43
2018-06-19T17:15:11.941Z,7.20
2018-06-19T17:17:40.854Z,8.10
2018-06-19T17:20:09.769Z,7.20
2018-06-19T17:22:39.712Z,7.03
2018-06-19T17:25:08.630Z,7.37
2018-06-19T17:27:37.524Z,7.83
2018-06-19T17:30:06.578Z,8.77
2018-06-19T17:32:35.461Z,9.87
2018-06-19T17:35:04.381Z,11.43
2018-06-19T17:37:33.269Z,12.23
2018-06-19T17:40:02.207Z,13.67
2018-06-19T17:42:31.106Z,16.77
2018-06-19T17:45:00.011Z,15.83
2018-06-19T17:47:29.084Z,14.90
2018-06-19T17:49:57.959Z,15.00
2018-06-19T17:52:27.032Z,16.70
2018-06-19T17:54:55.922Z,17.07
2018-06-19T17:57:25.177Z,15.40
2018-06-19T17:59:54.429Z,11.73
2018-06-19T18:02:23.348Z,17.43
2018-06-19T18:04:52.256Z,15.00
2018-06-19T18:07:21.166Z,13.90
2018-06-19T18:09:50.106Z,15.97
2018-06-19T18:12:19.436Z,13.13
2018-06-19T18:14:48.645Z,14.27
2018-06-19T18:17:17.546Z,14.30
2018-06-19T18:19:46.475Z,11.07
2018-06-19T18:22:16.519Z,13.83
2018-06-19T18:24:45.395Z,11.77
2018-06-19T18:27:14.353Z,12.80
2018-06-19T18:29:43.257Z,13.63
2018-06-19T18:32:12.197Z,11.93
2018-06-19T18:34:41.527Z,11.33
2018-06-19T18:37:11.429Z,8.07
2018-06-19T18:39:40.674Z,8.73
2018-06-19T18:42:09.637Z,10.00
2018-06-19T18:44:38.565Z,8.77
2018-06-19T18:47:07.494Z,10.00
2018-06-19T18:49:36.446Z,9.80
2018-06-19T18:52:05.366Z,8.43
2018-06-19T18:54:34.323Z,6.70
2018-06-19T18:57:03.225Z,7.00
2018-06-19T18:59:32.137Z,8.30
2018-06-19T19:02:01.207Z,7.97
2018-06-19T19:04:30.077Z,9.20
2018-06-19T19:06:59.013Z,10.33
2018-06-19T19:09:27.944Z,5.97
2018-06-19T19:11:56.922Z,8.73
2018-06-19T19:14:27.281Z,6.40
2018-06-19T19:17:01.557Z,9.17
2018-06-19T19:19:30.509Z,9.40
2018-06-19T19:21:59.453Z,6.10
2018-06-19T19:24:28.345Z,6.07
2018-06-19T19:27:02.640Z,8.27
2018-06-19T19:29:36.857Z,5.80
2018-06-19T19:32:05.797Z,7.07
2018-06-19T19:34:34.663Z,5.83
2018-06-19T19:37:08.840Z,8.00
2018-06-19T19:39:37.789Z,7.93
2018-06-19T19:42:06.708Z,9.97
2018-06-19T19:44:35.919Z,9.70
2018-06-19T19:48:12.882Z,10.63
2018-06-19T19:50:42.057Z,7.47
2018-06-19T19:53:11.041Z,5.47
2018-06-19T19:55:45.149Z,6.93
2018-06-19T19:58:19.273Z,7.20
2018-06-19T20:00:48.263Z,8.87
2018-06-19T20:03:17.181Z,10.50
2018-06-19T20:05:46.117Z,11.93
2018-06-19T20:08:21.384Z,8.30
2018-06-19T20:10:51.290Z,11.50
2018-06-19T20:13:20.597Z,8.73
2018-06-19T20:15:49.964Z,9.37
2018-06-19T20:18:19.240Z,8.53
2018-06-19T20:20:48.234Z,9.63
2018-06-19T20:23:17.219Z,10.83
2018-06-19T20:25:46.114Z,10.07
2018-06-19T20:28:15.112Z,7.03
2018-06-19T20:30:44.069Z,10.07
2018-06-19T20:33:13.001Z,10.00
2018-06-19T20:35:42.012Z,8.00
2018-06-19T20:38:10.929Z,10.27
2018-06-19T20:40:39.850Z,8.37
2018-06-19T20:43:09.769Z,9.20
2018-06-19T20:45:38.726Z,10.50
2018-06-19T20:48:07.717Z,8.93
2018-06-19T20:50:37.695Z,9.63
2018-06-19T20:53:06.695Z,12.77
2018-06-19T20:55:35.614Z,9.47
2018-06-19T20:58:04.536Z,6.33
2018-06-19T21:00:33.490Z,9.83
2018-06-19T21:03:02.437Z,9.70
2018-06-19T21:05:31.339Z,6.23
2018-06-19T21:08:00.344Z,7.20
2018-06-19T21:10:29.369Z,9.33
2018-06-19T21:12:58.332Z,6.47
2018-06-19T21:15:27.396Z,6.40
2018-06-19T21:17:56.328Z,6.20
2018-06-19T21:20:25.620Z,7.80
2018-06-19T21:22:54.824Z,7.50
2018-06-19T21:25:23.964Z,7.80
2018-06-19T21:27:52.905Z,9.70
2018-06-19T21:30:21.817Z,8.03
2018-06-19T21:32:50.708Z,7.07
2018-06-19T21:35:19.728Z,6.93
2018-06-19T21:37:48.709Z,6.30
2018-06-19T21:40:17.576Z,7.40
2018-06-19T21:42:48.397Z,7.23
2018-06-19T21:45:18.718Z,9.47
2018-06-19T21:47:47.870Z,8.03
2018-06-19T21:50:16.934Z,6.53
2018-06-19T21:52:46.022Z,4.87
2018-06-19T21:55:14.934Z,7.67
2018-06-19T21:57:44.009Z,10.03
2018-06-19T22:00:13.040Z,6.50
2018-06-19T22:02:41.959Z,6.10
2018-06-19T22:05:10.896Z,8.07
2018-06-19T22:07:39.786Z,7.20
2018-06-19T22:10:08.338Z,5.87
2018-06-19T22:12:37.336Z,4.93
2018-06-19T22:15:06.232Z,5.90
2018-06-19T22:17:35.152Z,4.37
2018-06-19T22:20:04.089Z,6.73
2018-06-19T22:22:33.628Z,4.67
2018-06-19T22:25:02.521Z,8.63
2018-06-19T22:27:32.090Z,7.27
2018-06-19T22:30:01.013Z,6.90
2018-06-19T22:32:29.953Z,6.63
2018-06-19T22:34:58.987Z,5.73
2018-06-19T22:37:28.055Z,5.50
2018-06-19T22:39:56.966Z,7.30
2018-06-19T22:42:25.872Z,7.57
2018-06-19T22:44:55.142Z,6.13
2018-06-19T22:47:24.096Z,6.67
2018-06-19T22:49:53.006Z,7.90
2018-06-19T22:52:21.889Z,5.17
2018-06-19T22:54:50.803Z,9.57
2018-06-19T22:57:20.256Z,8.33
2018-06-19T22:59:49.426Z,11.13
2018-06-19T23:02:18.354Z,13.43
2018-06-19T23:04:47.328Z,17.30
2018-06-19T23:07:16.813Z,17.23
2018-06-19T23:09:45.709Z,15.73
2018-06-19T23:12:14.645Z,13.00
2018-06-19T23:14:43.904Z,8.00
2018-06-19T23:17:12.953Z,9.97
2018-06-19T23:19:41.917Z,14.10
2018-06-19T23:22:10.971Z,11.03
2018-06-19T23:24:39.925Z,11.43
2018-06-19T23:27:14.761Z,9.43
2018-06-19T23:29:43.749Z,9.77
2018-06-19T23:32:12.635Z,9.00
2018-06-19T23:34:41.547Z,8.60
2018-06-19T23:37:11.053Z,12.80
2018-06-19T23:39:39.968Z,13.23
2018-06-19T23:42:09.170Z,11.57
2018-06-19T23:44:38.249Z,11.07
2018-06-19T23:47:07.224Z,10.23
2018-06-19T23:49:37.215Z,14.27
2018-06-19T23:52:06.153Z,10.30
2018-06-19T23:54:35.109Z,12.23
2018-06-19T23:57:09.791Z,14.13
2018-06-19T23:59:44.342Z,10.07
